Time;durP1;ratioP1;P1;durP2;ratioP2;P2;SDS_P1;SDS_P2;PMS_P1;PMS_P2;Temp;Humidity;BMP_temperature;BMP_pressure;BME280_temperature;BME280_humidity;BME280_pressure;Samples;Min_cycle;Max_cycle;Signal;HPM_P1;HPM_P2
2023/01/13 00:01:46;;;;;;;3.23;1.57;;;;;8.60;96002.00;;;;8263764;28;20604;-73
2023/01/13 00:05:52;;;;;;;2.27;1.30;;;;;8.60;96004.00;;;;8263002;28;20187;-73
2023/01/13 00:09:59;;;;;;;3.73;1.67;;;;;8.60;95998.00;;;;8263339;28;20191;-73
2023/01/13 00:14:08;;;;;;;4.27;1.70;;;;;8.70;95990.00;;;;8262721;28;20640;-73
2023/01/13 00:18:14;;;;;;;12.00;1.57;;;;;8.70;95980.00;;;;8262984;28;20227;-73
2023/01/13 00:22:18;;;;;;;2.00;1.37;;;;;8.70;95983.00;;;;8259588;28;20299;-73
2023/01/13 00:26:24;;;;;;;2.72;1.40;;;;;8.70;95977.00;;;;8262950;28;20652;-73
2023/01/13 00:30:32;;;;;;;4.60;1.67;;;;;8.80;95967.00;;;;8262692;28;20293;-73
2023/01/13 00:34:37;;;;;;;5.97;1.80;;;;;8.80;95960.00;;;;8263279;28;20194;-73
2023/01/13 00:38:42;;;;;;;5.82;1.50;;;;;8.80;95957.00;;;;8261730;28;20234;-73
2023/01/13 00:47:11;;;;;;;3.55;1.73;;;;;8.80;95958.00;;;;8262206;28;20195;-73
2023/01/13 00:51:16;;;;;;;2.03;1.40;;;;;8.80;95948.00;;;;8261703;28;20195;-73
2023/01/13 00:55:19;;;;;;;7.37;1.40;;;;;8.80;95946.00;;;;8262825;28;20198;-73
2023/01/13 00:59:23;;;;;;;3.90;1.70;;;;;8.90;95948.00;;;;8265987;28;20269;-73
2023/01/13 01:03:28;;;;;;;5.57;1.47;;;;;8.90;95949.00;;;;8248690;28;20226;-73
2023/01/13 01:07:32;;;;;;;2.10;1.60;;;;;8.90;95944.00;;;;8267538;28;20628;-73
2023/01/13 01:11:35;;;;;;;3.00;1.40;;;;;9.00;95938.00;;;;8266460;28;20202;-73
2023/01/13 01:15:46;;;;;;;4.03;1.50;;;;;9.00;95935.00;;;;8266643;28;20684;-73
2023/01/13 01:19:51;;;;;;;4.93;1.43;;;;;9.00;95932.00;;;;8267283;28;20214;-73
2023/01/13 01:23:59;;;;;;;2.60;1.55;;;;;9.00;95922.00;;;;8266605;28;20187;-72
2023/01/13 01:28:02;;;;;;;2.65;1.20;;;;;8.90;95919.00;;;;8266393;28;20195;-72
2023/01/13 01:32:08;;;;;;;3.28;1.40;;;;;8.90;95917.00;;;;8266006;28;20540;-73
2023/01/13 01:36:13;;;;;;;4.10;1.60;;;;;8.80;95923.00;;;;8266497;28;20595;-73
2023/01/13 01:40:17;;;;;;;1.83;1.30;;;;;8.90;95921.00;;;;8265980;28;20225;-73
2023/01/13 01:44:56;;;;;;;3.40;1.57;;;;;8.80;95906.00;;;;8265844;28;20191;-72
2023/01/13 01:49:10;;;;;;;8.13;3.92;;;;;8.80;95913.00;;;;8195607;29;20399;-72
2023/01/13 01:53:23;;;;;;;1.43;1.33;;;;;8.80;95906.00;;;;8234016;28;20416;-72
2023/01/13 01:57:31;;;;;;;3.03;1.60;;;;;8.90;95909.00;;;;8267889;28;20655;-72
2023/01/13 02:01:37;;;;;;;2.20;1.30;;;;;8.90;95906.00;;;;8272195;28;20226;-73
2023/01/13 02:05:41;;;;;;;1.60;1.50;;;;;8.90;95901.00;;;;8268159;28;20195;-72
2023/01/13 02:09:45;;;;;;;1.80;1.40;;;;;8.90;95890.00;;;;8272377;28;20191;-72
2023/01/13 02:13:50;;;;;;;2.78;1.48;;;;;8.90;95891.00;;;;8271742;28;20632;-72
2023/01/13 02:18:16;;;;;;;3.08;1.40;;;;;8.90;95885.00;;;;8254465;28;20517;-72
2023/01/13 02:22:42;;;;;;;1.37;1.27;;;;;8.90;95880.00;;;;8270539;28;20223;-73
2023/01/13 02:27:24;;;;;;;2.85;1.50;;;;;8.90;95882.00;;;;8271762;28;20710;-72
2023/01/13 02:31:43;;;;;;;2.58;1.52;;;;;8.90;95881.00;;;;8268706;28;20191;-72
2023/01/13 02:35:54;;;;;;;2.83;1.40;;;;;8.90;95872.00;;;;8253320;28;20203;-72
2023/01/13 02:40:05;;;;;;;2.03;1.60;;;;;8.90;95877.00;;;;8270648;28;20321;-72
2023/01/13 02:44:10;;;;;;;1.60;1.50;;;;;9.00;95859.00;;;;8272058;28;20602;-72
2023/01/13 02:48:16;;;;;;;5.40;1.30;;;;;9.00;95858.00;;;;8269852;28;20203;-72
2023/01/13 02:52:23;;;;;;;2.10;1.27;;;;;9.00;95854.00;;;;8270287;28;20198;-72
2023/01/13 02:56:27;;;;;;;3.33;1.50;;;;;9.00;95853.00;;;;8270238;28;20234;-72
2023/01/13 03:05:01;;;;;;;7.03;1.30;;;;;9.00;95862.00;;;;8235886;28;20223;-74
2023/01/13 03:09:15;;;;;;;3.90;1.50;;;;;9.00;95863.00;;;;8256098;28;20655;-80
2023/01/13 03:13:52;;;;;;;2.47;1.37;;;;;9.00;95859.00;;;;8250602;28;20194;-75
2023/01/13 03:18:02;;;;;;;4.07;1.27;;;;;9.10;95864.00;;;;8221003;28;20203;-80
2023/01/13 03:22:21;;;;;;;5.88;1.45;;;;;9.20;95860.00;;;;8247921;28;20227;-78
2023/01/13 03:26:33;;;;;;;1.50;1.40;;;;;9.20;95857.00;;;;8256201;28;20345;-83
2023/01/13 03:30:44;;;;;;;2.78;1.27;;;;;9.10;95847.00;;;;8251118;28;20199;-82
2023/01/13 03:34:51;;;;;;;2.05;1.25;;;;;9.10;95841.00;;;;8253100;28;20195;-78
2023/01/13 03:38:58;;;;;;;1.30;1.20;;;;;9.00;95838.00;;;;8255708;28;20207;-74
2023/01/13 03:47:35;;;;;;;2.78;1.33;;;;;9.00;95838.00;;;;8228751;28;20194;-78
2023/01/13 03:51:43;;;;;;;2.97;1.30;;;;;9.00;95838.00;;;;8255890;28;20290;-78
2023/01/13 03:55:52;;;;;;;1.53;1.20;;;;;9.10;95834.00;;;;8252305;28;20814;-79
2023/01/13 04:00:00;;;;;;;3.58;1.40;;;;;9.10;95840.00;;;;8247459;28;20234;-79
2023/01/13 04:04:08;;;;;;;4.43;1.30;;;;;9.10;95835.00;;;;8287814;28;20233;-81
2023/01/13 04:08:18;;;;;;;1.40;1.30;;;;;9.10;95842.00;;;;8294505;28;20250;-76
2023/01/13 04:12:59;;;;;;;2.57;1.40;;;;;9.10;95830.00;;;;8283211;28;20199;-79
2023/01/13 04:16:56;;;;;;;1.65;1.55;;;;;9.20;95835.00;;;;8283863;28;20248;-78
2023/01/13 04:21:01;;;;;;;2.33;1.38;;;;;9.20;95834.00;;;;8291461;28;20756;-76
2023/01/13 04:25:05;;;;;;;3.13;1.90;;;;;9.20;95836.00;;;;8290253;28;20773;-73
2023/01/13 04:29:10;;;;;;;2.92;1.48;;;;;9.20;95829.00;;;;8285090;28;20198;-81
2023/01/13 04:33:16;;;;;;;1.92;1.48;;;;;9.20;95840.00;;;;8288395;28;20197;-76
2023/01/13 04:37:21;;;;;;;6.83;1.40;;;;;9.30;95832.00;;;;8286302;28;20655;-82
2023/01/13 04:41:26;;;;;;;1.85;1.40;;;;;9.30;95830.00;;;;8284243;28;20783;-76
2023/01/13 04:45:31;;;;;;;2.05;1.30;;;;;9.30;95820.00;;;;8248516;28;20206;-75
2023/01/13 04:49:34;;;;;;;1.23;1.08;;;;;9.30;95822.00;;;;8283342;28;20729;-76
2023/01/13 04:53:38;;;;;;;1.73;1.40;;;;;9.40;95817.00;;;;8280613;28;20204;-75
2023/01/13 04:57:43;;;;;;;1.10;1.10;;;;;9.40;95814.00;;;;8275813;28;20215;-80
2023/01/13 05:01:50;;;;;;;2.20;1.40;;;;;9.40;95814.00;;;;8255199;28;20234;-78
2023/01/13 05:05:55;;;;;;;2.10;1.17;;;;;9.40;95819.00;;;;8267346;28;20287;-75
2023/01/13 05:09:58;;;;;;;1.77;1.35;;;;;9.40;95820.00;;;;8286574;28;20268;-78
2023/01/13 05:18:23;;;;;;;1.85;1.30;;;;;9.50;95816.00;;;;8272152;28;20293;-78
2023/01/13 05:26:47;;;;;;;1.88;1.20;;;;;9.50;95824.00;;;;8254083;28;20643;-77
2023/01/13 05:30:52;;;;;;;1.77;1.20;;;;;9.60;95818.00;;;;8283159;28;20282;-77
2023/01/13 05:34:57;;;;;;;1.15;1.05;;;;;9.60;95820.00;;;;8291146;28;20205;-72
2023/01/13 05:39:04;;;;;;;4.10;1.50;;;;;9.60;95824.00;;;;8271692;28;20210;-75
2023/01/13 05:43:21;;;;;;;2.33;1.50;;;;;9.60;95825.00;;;;8302988;28;20371;-77
2023/01/13 05:47:26;;;;;;;1.67;1.23;;;;;9.60;95814.00;;;;8287896;28;20206;-78
2023/01/13 05:51:31;;;;;;;1.40;1.30;;;;;9.60;95820.00;;;;8286761;28;20269;-76
2023/01/13 05:55:38;;;;;;;2.15;1.40;;;;;9.60;95819.00;;;;8291581;28;20196;-77
2023/01/13 05:59:46;;;;;;;2.33;1.47;;;;;9.60;95818.00;;;;8277904;28;20210;-76
2023/01/13 06:03:51;;;;;;;1.50;1.38;;;;;9.70;95823.00;;;;8287306;28;20240;-76
2023/01/13 06:08:01;;;;;;;1.30;1.20;;;;;9.70;95812.00;;;;8302438;28;20204;-78
2023/01/13 06:12:09;;;;;;;2.25;1.50;;;;;9.70;95816.00;;;;8298276;28;20197;-78
2023/01/13 06:16:16;;;;;;;3.88;1.38;;;;;9.70;95809.00;;;;8284572;28;20252;-76
2023/01/13 06:20:20;;;;;;;1.50;1.30;;;;;9.80;95808.00;;;;8285044;28;20272;-76
2023/01/13 06:24:25;;;;;;;1.17;1.10;;;;;9.80;95799.00;;;;8303797;28;20198;-77
2023/01/13 06:28:34;;;;;;;3.45;1.30;;;;;9.80;95803.00;;;;8302272;28;20197;-74
2023/01/13 06:32:43;;;;;;;3.30;1.40;;;;;9.90;95798.00;;;;8285244;28;20202;-77
2023/01/13 06:36:51;;;;;;;1.27;1.20;;;;;9.90;95798.00;;;;8284732;28;20729;-81
2023/01/13 06:40:55;;;;;;;1.65;1.20;;;;;9.90;95803.00;;;;8294207;28;20630;-76
2023/01/13 06:44:58;;;;;;;2.35;1.23;;;;;10.00;95811.00;;;;8287388;28;20283;-78
2023/01/13 06:49:05;;;;;;;2.75;1.27;;;;;10.00;95803.00;;;;8285639;28;20296;-80
2023/01/13 06:53:08;;;;;;;1.08;1.08;;;;;10.00;95810.00;;;;8280029;28;20258;-75
2023/01/13 06:57:14;;;;;;;1.58;1.30;;;;;10.00;95804.00;;;;8284380;28;20213;-73
2023/01/13 07:01:21;;;;;;;1.10;1.10;;;;;10.00;95808.00;;;;8281249;28;20568;-75
2023/01/13 07:05:24;;;;;;;2.45;1.60;;;;;10.10;95811.00;;;;8288476;28;20187;-77
2023/01/13 07:09:30;;;;;;;1.50;1.40;;;;;10.10;95797.00;;;;8287809;28;20240;-74
2023/01/13 07:17:59;;;;;;;1.05;1.05;;;;;10.00;95805.00;;;;8283277;28;20202;-74
2023/01/13 07:22:05;;;;;;;3.33;1.40;;;;;10.00;95808.00;;;;8284043;28;20230;-72
2023/01/13 07:26:10;;;;;;;6.20;2.10;;;;;9.90;95812.00;;;;8289344;28;20225;-75
2023/01/13 07:30:21;;;;;;;2.90;1.65;;;;;9.90;95815.00;;;;8292100;28;20205;-72
2023/01/13 07:34:26;;;;;;;1.45;1.35;;;;;9.80;95811.00;;;;8286367;28;20497;-74
2023/01/13 07:38:33;;;;;;;1.88;1.17;;;;;9.90;95814.00;;;;8287976;28;20425;-74
2023/01/13 07:47:01;;;;;;;2.72;1.70;;;;;9.90;95808.00;;;;8280602;28;20190;-72
2023/01/13 07:51:07;;;;;;;1.23;1.20;;;;;9.90;95799.00;;;;8265131;28;20277;-74
2023/01/13 07:55:10;;;;;;;1.40;1.30;;;;;10.00;95814.00;;;;8288237;28;20198;-76
2023/01/13 07:59:17;;;;;;;4.40;1.13;;;;;10.10;95818.00;;;;8276889;28;20198;-79
2023/01/13 08:03:22;;;;;;;1.10;1.10;;;;;10.10;95816.00;;;;8283126;28;20285;-80
2023/01/13 08:07:26;;;;;;;8.43;3.20;;;;;10.20;95813.00;;;;8276012;28;20207;-77
2023/01/13 08:11:30;;;;;;;4.72;2.05;;;;;10.30;95818.00;;;;8275301;28;21500;-76
2023/01/13 08:15:37;;;;;;;2.60;1.70;;;;;10.40;95828.00;;;;8283034;28;20691;-73
2023/01/13 08:19:42;;;;;;;3.95;1.98;;;;;10.50;95830.00;;;;8285623;28;20425;-79
2023/01/13 08:23:45;;;;;;;2.40;1.10;;;;;10.50;95846.00;;;;8281429;28;20231;-75
2023/01/13 08:27:49;;;;;;;1.30;1.30;;;;;10.60;95836.00;;;;8296701;28;20908;-71
2023/01/13 08:31:54;;;;;;;1.88;1.10;;;;;10.60;95835.00;;;;8289467;28;20202;-74
2023/01/13 08:36:02;;;;;;;1.13;0.90;;;;;10.60;95821.00;;;;8283201;28;20214;-73
2023/01/13 08:40:07;;;;;;;4.03;1.25;;;;;10.70;95822.00;;;;8270384;28;20206;-73
2023/01/13 08:44:10;;;;;;;1.40;1.30;;;;;10.70;95830.00;;;;8265745;28;20845;-73
2023/01/13 08:48:13;;;;;;;1.40;1.40;;;;;10.80;95824.00;;;;8287334;28;20214;-72
2023/01/13 08:52:21;;;;;;;1.10;1.10;;;;;10.70;95808.00;;;;8283119;28;20256;-72
2023/01/13 08:56:25;;;;;;;2.97;1.42;;;;;10.80;95829.00;;;;8284891;28;20257;-76
2023/01/13 09:00:29;;;;;;;2.05;1.10;;;;;10.70;95817.00;;;;8295547;28;20278;-77
2023/01/13 09:04:32;;;;;;;1.55;1.45;;;;;10.70;95813.00;;;;8279499;28;20685;-74
2023/01/13 09:08:40;;;;;;;1.00;1.00;;;;;10.60;95825.00;;;;8276416;28;20208;-80
2023/01/13 09:17:04;;;;;;;1.38;1.15;;;;;10.60;95847.00;;;;8276736;28;20210;-75
2023/01/13 09:21:14;;;;;;;1.33;1.20;;;;;10.70;95845.00;;;;8296563;28;20202;-76
2023/01/13 09:25:21;;;;;;;1.20;1.10;;;;;10.70;95845.00;;;;8286643;28;20676;-79
2023/01/13 09:29:31;;;;;;;1.00;1.00;;;;;10.80;95843.00;;;;8285275;28;20260;-81
2023/01/13 09:38:01;;;;;;;2.88;2.45;;;;;10.40;95863.00;;;;8278112;28;20209;-74
2023/01/13 09:46:45;;;;;;;49.22;16.35;;;;;10.60;95856.00;;;;8275393;28;20214;-73
2023/01/13 09:50:59;;;;;;;7.15;4.70;;;;;10.70;95841.00;;;;8275172;28;20663;-76
2023/01/13 09:55:06;;;;;;;81.85;27.30;;;;;10.80;95830.00;;;;8277905;28;20202;-77
2023/01/13 09:59:16;;;;;;;72.97;33.03;;;;;11.00;95830.00;;;;8262712;28;20583;-75
2023/01/13 10:03:28;;;;;;;38.35;14.35;;;;;11.10;95822.00;;;;8275759;28;20317;-73
2023/01/13 10:07:36;;;;;;;196.75;56.38;;;;;11.20;95818.00;;;;8270335;28;20210;-74
2023/01/13 10:16:17;;;;;;;41.95;16.38;;;;;11.50;95799.00;;;;8268491;28;20208;-76
2023/01/13 10:20:28;;;;;;;25.63;8.93;;;;;11.60;95803.00;;;;8278293;28;20198;-75
2023/01/13 10:24:48;;;;;;;7.10;4.18;;;;;11.70;95797.00;;;;8280024;28;20241;-74
2023/01/13 10:28:52;;;;;;;5.82;3.30;;;;;11.80;95800.00;;;;8299484;28;20198;-74
2023/01/13 10:33:04;;;;;;;8.02;7.07;;;;;12.00;95815.00;;;;8286989;28;20651;-75
2023/01/13 10:37:21;;;;;;;3.58;3.38;;;;;12.20;95799.00;;;;8286067;28;20964;-76
2023/01/13 10:41:29;;;;;;;3.45;3.25;;;;;12.40;95799.00;;;;8279590;28;20256;-75
2023/01/13 10:45:36;;;;;;;31.42;28.23;;;;;12.50;95797.00;;;;8282545;28;20202;-76
2023/01/13 10:49:43;;;;;;;4.15;3.85;;;;;12.40;95795.00;;;;8284029;28;20236;-75
2023/01/13 10:53:56;;;;;;;4.18;3.97;;;;;12.30;95797.00;;;;8275672;28;20210;-75
2023/01/13 10:58:12;;;;;;;2.97;1.40;;;;;12.20;95781.00;;;;8275051;28;20199;-77
2023/01/13 11:02:29;;;;;;;1.75;1.67;;;;;12.10;95788.00;;;;8269694;28;21071;-74
2023/01/13 11:06:46;;;;;;;1.50;1.40;;;;;11.60;95798.00;;;;8281797;28;20670;-75
2023/01/13 11:10:52;;;;;;;1.58;1.58;;;;;11.00;95796.00;;;;8280751;28;20206;-81
2023/01/13 11:15:07;;;;;;;2.53;2.33;;;;;10.60;95801.00;;;;8279205;28;20205;-78
2023/01/13 11:19:15;;;;;;;2.08;1.98;;;;;10.30;95806.00;;;;8263439;28;20632;-79
2023/01/13 11:23:26;;;;;;;2.70;2.50;;;;;10.20;95829.00;;;;8276888;28;20757;-75
2023/01/13 11:27:40;;;;;;;2.75;1.60;;;;;10.10;95837.00;;;;8274130;28;20209;-75
2023/01/13 11:31:48;;;;;;;1.55;1.55;;;;;10.00;95843.00;;;;8270916;28;20528;-73
2023/01/13 11:36:05;;;;;;;1.50;1.40;;;;;9.80;95886.00;;;;8263031;28;20664;-73
2023/01/13 11:40:17;;;;;;;1.00;1.00;;;;;9.40;95881.00;;;;8264383;28;20216;-73
2023/01/13 11:44:27;;;;;;;1.58;1.10;;;;;9.00;95880.00;;;;8264156;28;20331;-71
2023/01/13 11:48:40;;;;;;;1.23;1.13;;;;;8.80;95877.00;;;;8263186;28;20192;-71
2023/01/13 11:53:09;;;;;;;68.80;32.10;;;;;8.70;95863.00;;;;8264639;28;20690;-71
2023/01/13 11:57:39;;;;;;;6.68;2.85;;;;;8.80;95851.00;;;;8261144;28;20592;-72
2023/01/13 12:01:56;;;;;;;134.77;54.40;;;;;9.00;95853.00;;;;8261942;28;20224;-72
2023/01/13 12:06:13;;;;;;;309.27;155.00;;;;;9.10;95852.00;;;;8262395;28;20298;-72
2023/01/13 12:10:35;;;;;;;14.40;9.50;;;;;9.10;95848.00;;;;8262653;28;20496;-72
2023/01/13 12:15:06;;;;;;;8.32;6.35;;;;;9.10;95848.00;;;;8262993;28;20190;-72
2023/01/13 12:19:23;;;;;;;16.73;10.80;;;;;9.20;95842.00;;;;8262315;28;20202;-72
2023/01/13 12:23:34;;;;;;;25.92;13.23;;;;;9.30;95844.00;;;;8262553;28;20210;-72
2023/01/13 12:27:47;;;;;;;14.88;8.50;;;;;9.30;95849.00;;;;8262763;28;20195;-72
2023/01/13 12:31:53;;;;;;;10.98;7.22;;;;;9.30;95849.00;;;;8262454;28;20198;-72
2023/01/13 12:36:03;;;;;;;3.30;2.95;;;;;9.30;95856.00;;;;8262030;28;20203;-72
2023/01/13 12:40:19;;;;;;;2.92;2.70;;;;;9.30;95866.00;;;;8261763;28;20238;-72
2023/01/13 12:44:26;;;;;;;2.80;2.70;;;;;9.20;95859.00;;;;8262507;28;20215;-73
2023/01/13 12:49:07;;;;;;;2.60;2.40;;;;;9.20;95854.00;;;;8262680;28;20191;-73
2023/01/13 12:53:37;;;;;;;2.10;2.00;;;;;9.20;95853.00;;;;8261834;28;20198;-73
2023/01/13 12:58:21;;;;;;;2.90;2.70;;;;;9.10;95858.00;;;;8261733;28;20230;-72
2023/01/13 13:02:39;;;;;;;2.38;1.20;;;;;9.00;95851.00;;;;8209387;28;20664;-71
2023/01/13 13:06:51;;;;;;;1.77;1.10;;;;;9.10;95845.00;;;;8262425;28;20234;-72
2023/01/13 13:15:45;;;;;;;1.73;1.63;;;;;9.00;95875.00;;;;8294708;28;20284;-72
2023/01/13 13:19:51;;;;;;;2.78;1.95;;;;;8.90;95870.00;;;;8294568;28;20648;-72
2023/01/13 13:24:04;;;;;;;17.60;8.95;;;;;9.00;95869.00;;;;8295039;28;20232;-72
2023/01/13 13:28:20;;;;;;;6.70;4.72;;;;;9.10;95866.00;;;;8294190;28;20230;-72
2023/01/13 13:32:51;;;;;;;4.75;2.85;;;;;9.30;95859.00;;;;8294639;28;20240;-72
2023/01/13 13:37:15;;;;;;;2.10;2.00;;;;;9.30;95860.00;;;;8291023;28;20544;-73
2023/01/13 13:50:19;;;;;;;4.40;1.15;;;;;9.60;95889.00;;;;8277922;28;20627;-71
2023/01/13 13:54:23;;;;;;;1.40;1.30;;;;;9.50;95884.00;;;;8299470;28;20182;-71
2023/01/13 13:58:29;;;;;;;1.75;1.25;;;;;9.40;95893.00;;;;8300102;28;20635;-71
2023/01/13 14:02:36;;;;;;;3.85;1.30;;;;;9.30;95877.00;;;;8304610;28;20316;-71
2023/01/13 14:06:53;;;;;;;4.20;1.33;;;;;9.20;95895.00;;;;8303820;28;20198;-71
2023/01/13 14:10:58;;;;;;;1.85;1.05;;;;;9.20;95915.00;;;;8303817;28;20323;-72
2023/01/13 14:15:06;;;;;;;2.92;1.30;;;;;9.20;95916.00;;;;8303784;28;20195;-71
2023/01/13 14:19:26;;;;;;;4.03;1.48;;;;;9.10;95903.00;;;;8302931;28;20199;-72
2023/01/13 14:23:32;;;;;;;3.53;1.30;;;;;8.90;95916.00;;;;8303399;28;20225;-72
2023/01/13 14:27:43;;;;;;;1.33;1.02;;;;;8.80;95917.00;;;;8302856;28;20279;-71
2023/01/13 14:31:48;;;;;;;3.10;1.10;;;;;8.80;95925.00;;;;8303162;28;20228;-72
2023/01/13 14:36:14;;;;;;;1.40;1.30;;;;;8.70;95928.00;;;;8299583;28;20528;-72
2023/01/13 14:40:44;;;;;;;4.78;1.50;;;;;8.60;95936.00;;;;8303578;28;20231;-73
2023/01/13 14:44:53;;;;;;;4.27;1.67;;;;;8.70;95956.00;;;;8300843;28;20313;-73
2023/01/13 14:49:05;;;;;;;5.43;1.67;;;;;8.70;95976.00;;;;8302512;28;20202;-72
2023/01/13 14:53:30;;;;;;;5.23;1.50;;;;;8.70;95972.00;;;;8296674;28;20694;-72
2023/01/13 14:57:40;;;;;;;3.27;1.50;;;;;8.50;95987.00;;;;8297410;28;20189;-73
2023/01/13 15:01:47;;;;;;;5.23;1.40;;;;;8.40;95982.00;;;;8300769;28;20222;-73
2023/01/13 15:05:53;;;;;;;2.92;1.30;;;;;8.30;95988.00;;;;8300038;28;20218;-72
2023/01/13 15:10:01;;;;;;;5.85;1.38;;;;;8.40;95999.00;;;;8301768;28;20603;-73
2023/01/13 15:14:10;;;;;;;6.10;1.57;;;;;8.30;95987.00;;;;8301385;28;20194;-73
2023/01/13 15:18:16;;;;;;;6.27;1.57;;;;;8.30;96001.00;;;;8301643;28;20222;-73
2023/01/13 15:22:20;;;;;;;8.03;3.97;;;;;8.30;95990.00;;;;8301466;28;20198;-72
2023/01/13 15:26:26;;;;;;;4.57;1.80;;;;;8.30;96004.00;;;;8301963;28;20667;-72
2023/01/13 15:30:31;;;;;;;4.00;1.87;;;;;8.20;96010.00;;;;8301642;28;20226;-73
2023/01/13 15:34:35;;;;;;;5.27;1.70;;;;;8.00;96020.00;;;;8302238;28;20194;-73
2023/01/13 15:38:39;;;;;;;4.83;1.90;;;;;7.90;96032.00;;;;8301426;28;20190;-74
2023/01/13 15:47:07;;;;;;;16.67;6.67;;;;;7.70;96038.00;;;;8275700;28;20544;-73
2023/01/13 15:51:16;;;;;;;7.77;3.47;;;;;7.70;96051.00;;;;8301088;28;20205;-73
2023/01/13 15:55:20;;;;;;;8.63;3.97;;;;;7.70;96060.00;;;;8301315;28;20202;-73
2023/01/13 15:59:28;;;;;;;9.73;4.87;;;;;7.60;96067.00;;;;8299984;28;20197;-72
2023/01/13 16:03:33;;;;;;;15.93;3.03;;;;;7.60;96085.00;;;;8300641;28;20229;-72
2023/01/13 16:07:36;;;;;;;11.77;3.37;;;;;7.60;96086.00;;;;8300296;28;20289;-72
2023/01/13 16:12:20;;;;;;;9.97;2.37;;;;;7.50;96087.00;;;;8296485;28;20317;-72
2023/01/13 16:16:31;;;;;;;20.87;7.13;;;;;7.40;96100.00;;;;8297594;28;20250;-73
2023/01/13 16:20:39;;;;;;;15.10;6.30;;;;;7.40;96084.00;;;;8299718;28;20226;-72
2023/01/13 16:24:44;;;;;;;29.77;14.70;;;;;7.30;96095.00;;;;8300433;28;20222;-72
2023/01/13 16:28:49;;;;;;;117.33;43.87;;;;;7.20;96101.00;;;;8299699;28;20202;-71
2023/01/13 16:32:53;;;;;;;594.57;224.53;;;;;7.30;96114.00;;;;8299075;28;20314;-71
2023/01/13 16:36:56;;;;;;;879.70;289.87;;;;;7.30;96113.00;;;;8299733;28;20207;-70
2023/01/13 16:40:59;;;;;;;361.87;103.97;;;;;7.30;96111.00;;;;8299228;28;20194;-70
2023/01/13 16:45:08;;;;;;;394.93;107.30;;;;;7.30;96118.00;;;;8281593;28;20292;-71
2023/01/13 16:49:16;;;;;;;1020.13;285.33;;;;;7.20;96127.00;;;;8298541;28;20198;-71
2023/01/13 16:53:22;;;;;;;835.47;243.13;;;;;7.20;96138.00;;;;8298956;28;20194;-71
2023/01/13 16:57:25;;;;;;;376.73;102.17;;;;;7.20;96136.00;;;;8298980;28;20249;-70
2023/01/13 17:01:34;;;;;;;277.57;97.77;;;;;7.30;96143.00;;;;8298756;28;20226;-71
2023/01/13 17:05:40;;;;;;;38.63;19.47;;;;;7.40;96137.00;;;;8298857;28;20214;-71
2023/01/13 17:09:43;;;;;;;14.93;10.00;;;;;7.40;96151.00;;;;8298584;28;20205;-70
2023/01/13 17:13:48;;;;;;;10.60;4.30;;;;;7.30;96157.00;;;;8298314;28;20213;-70
2023/01/13 17:17:56;;;;;;;6.40;4.70;;;;;7.40;96148.00;;;;8299079;28;20241;-70
2023/01/13 17:22:00;;;;;;;8.57;5.47;;;;;7.30;96157.00;;;;8299073;28;20519;-70
2023/01/13 17:26:04;;;;;;;8.23;3.07;;;;;7.30;96165.00;;;;8300315;28;20228;-70
2023/01/13 17:30:13;;;;;;;3.20;1.93;;;;;7.30;96179.00;;;;8304622;28;20257;-70
2023/01/13 17:34:19;;;;;;;5.77;2.83;;;;;7.30;96184.00;;;;8304965;28;20198;-71
2023/01/13 17:38:26;;;;;;;9.03;3.50;;;;;7.30;96202.00;;;;8295637;28;20285;-73
2023/01/13 17:42:37;;;;;;;7.80;4.73;;;;;7.20;96193.00;;;;8304918;28;20190;-71
2023/01/13 17:46:46;;;;;;;5.97;1.93;;;;;7.20;96207.00;;;;8300195;28;20316;-71
2023/01/13 17:50:51;;;;;;;4.33;2.00;;;;;7.30;96217.00;;;;8301944;28;20221;-71
2023/01/13 17:54:54;;;;;;;2.95;1.90;;;;;7.20;96214.00;;;;8299927;28;20540;-72
2023/01/13 17:58:57;;;;;;;5.00;1.80;;;;;7.20;96217.00;;;;8298836;28;20241;-72
2023/01/13 18:03:00;;;;;;;5.00;1.93;;;;;7.10;96223.00;;;;8295932;28;20465;-72
2023/01/13 18:07:08;;;;;;;4.37;3.70;;;;;7.00;96230.00;;;;8293807;28;20284;-73
2023/01/13 18:11:17;;;;;;;3.27;2.30;;;;;6.90;96230.00;;;;8297218;28;20628;-73
2023/01/13 18:15:22;;;;;;;4.77;2.30;;;;;6.80;96233.00;;;;8298553;28;20249;-73
2023/01/13 18:28:11;;;;;;;8.90;1.77;;;;;6.50;96229.00;;;;8298317;28;20897;-73
2023/01/13 18:32:14;;;;;;;9.73;2.53;;;;;6.50;96235.00;;;;8279019;28;20241;-73
2023/01/13 18:36:25;;;;;;;4.20;1.80;;;;;6.40;96234.00;;;;8297486;28;20194;-73
2023/01/13 18:40:32;;;;;;;7.07;1.90;;;;;6.40;96248.00;;;;8296142;28;20608;-74
2023/01/13 18:44:35;;;;;;;4.30;1.80;;;;;6.30;96247.00;;;;8297251;28;20666;-73
2023/01/13 18:48:38;;;;;;;10.03;2.50;;;;;6.20;96257.00;;;;8297667;28;20198;-74
2023/01/13 18:52:46;;;;;;;7.80;2.37;;;;;6.20;96249.00;;;;8296909;28;20186;-74
2023/01/13 18:56:59;;;;;;;8.83;2.40;;;;;6.10;96243.00;;;;8292636;28;20198;-73
2023/01/13 19:01:05;;;;;;;10.10;2.40;;;;;6.10;96251.00;;;;8275474;28;20649;-73
2023/01/13 19:05:11;;;;;;;6.33;2.23;;;;;6.00;96256.00;;;;8287512;28;20222;-74
2023/01/13 19:09:14;;;;;;;7.93;1.93;;;;;6.00;96260.00;;;;8288951;28;20190;-73
2023/01/13 19:13:28;;;;;;;3.40;1.60;;;;;6.00;96257.00;;;;8288975;28;20194;-73
2023/01/13 19:17:35;;;;;;;5.67;1.83;;;;;6.00;96261.00;;;;8293468;28;20245;-74
2023/01/13 19:21:39;;;;;;;5.83;2.27;;;;;6.00;96276.00;;;;8296004;28;20725;-73
2023/01/13 19:25:48;;;;;;;4.30;1.80;;;;;6.00;96277.00;;;;8293379;28;20225;-74
2023/01/13 19:29:56;;;;;;;8.23;1.67;;;;;6.00;96283.00;;;;8297346;28;20197;-74
2023/01/13 19:34:00;;;;;;;4.23;1.73;;;;;6.00;96295.00;;;;8299000;28;20634;-73
2023/01/13 19:38:05;;;;;;;4.90;1.57;;;;;6.10;96291.00;;;;8295751;28;20246;-73
2023/01/13 19:46:37;;;;;;;6.33;2.63;;;;;6.10;96282.00;;;;8301579;28;20233;-73
2023/01/13 19:50:40;;;;;;;2.17;1.70;;;;;6.10;96306.00;;;;8300216;28;20629;-73
2023/01/13 19:54:46;;;;;;;4.20;1.90;;;;;6.10;96295.00;;;;8300906;28;20535;-73
2023/01/13 19:58:50;;;;;;;9.07;1.70;;;;;6.10;96311.00;;;;8300564;28;20268;-74
2023/01/13 20:02:59;;;;;;;6.60;2.60;;;;;6.00;96312.00;;;;8298732;28;20226;-73
2023/01/13 20:07:05;;;;;;;4.87;1.90;;;;;6.00;96315.00;;;;8300346;28;20267;-73
2023/01/13 20:11:26;;;;;;;1.90;1.50;;;;;6.00;96319.00;;;;8298813;28;20205;-73
2023/01/13 20:15:30;;;;;;;7.73;2.00;;;;;5.90;96330.00;;;;8300777;28;20654;-74
2023/01/13 20:19:38;;;;;;;6.33;1.87;;;;;6.00;96335.00;;;;8297030;28;20239;-74
2023/01/13 20:23:44;;;;;;;12.43;5.17;;;;;6.10;96330.00;;;;8294900;28;20241;-73
2023/01/13 20:27:48;;;;;;;10.13;2.57;;;;;6.20;96354.00;;;;8298851;28;20222;-73
2023/01/13 20:31:54;;;;;;;10.10;3.57;;;;;6.30;96339.00;;;;8299836;28;20635;-73
2023/01/13 20:36:00;;;;;;;7.10;2.43;;;;;6.40;96347.00;;;;8299144;28;20193;-73
2023/01/13 20:40:04;;;;;;;5.10;3.20;;;;;6.50;96350.00;;;;8299426;28;20269;-73
2023/01/13 20:44:13;;;;;;;5.53;2.00;;;;;6.60;96362.00;;;;8298917;28;20190;-73
2023/01/13 20:48:21;;;;;;;7.70;2.50;;;;;6.60;96360.00;;;;8299001;28;20210;-73
2023/01/13 20:52:25;;;;;;;6.43;2.17;;;;;6.60;96369.00;;;;8299115;28;20202;-73
2023/01/13 20:56:28;;;;;;;7.03;2.80;;;;;6.70;96377.00;;;;8299110;28;20246;-73
2023/01/13 21:00:33;;;;;;;6.90;2.20;;;;;6.70;96382.00;;;;8298207;28;20202;-73
2023/01/13 21:04:40;;;;;;;7.73;2.70;;;;;6.80;96389.00;;;;8299914;28;20230;-73
2023/01/13 21:08:46;;;;;;;6.47;2.10;;;;;6.80;96389.00;;;;8299141;28;20563;-73
2023/01/13 21:19:05;;;;;;;6.20;2.10;;;;;6.90;96390.00;;;;8298646;28;20198;-73
2023/01/13 21:21:43;;;;;;;6.07;2.30;;;;;7.00;96393.00;;;;8299126;28;20201;-73
2023/01/13 21:25:48;;;;;;;4.47;2.40;;;;;7.10;96408.00;;;;8299071;28;20663;-73
2023/01/13 21:29:51;;;;;;;8.10;3.67;;;;;7.10;96408.00;;;;8297239;28;20198;-71
2023/01/13 21:33:54;;;;;;;8.70;2.53;;;;;7.10;96401.00;;;;8298923;28;20186;-71
2023/01/13 21:37:59;;;;;;;7.67;2.37;;;;;7.00;96411.00;;;;8298162;28;20525;-71
2023/01/13 21:51:01;;;;;;;6.57;1.87;;;;;6.80;96425.00;;;;8262093;28;20221;-72
2023/01/13 21:55:19;;;;;;;6.03;2.37;;;;;6.70;96433.00;;;;8298581;28;20694;-73
2023/01/13 21:59:24;;;;;;;6.53;2.07;;;;;6.60;96424.00;;;;8297830;28;20631;-72
2023/01/13 22:04:11;;;;;;;8.93;2.10;;;;;6.50;96433.00;;;;8298947;28;20250;-72
2023/01/13 22:07:55;;;;;;;6.90;2.27;;;;;6.60;96439.00;;;;8298306;28;20226;-73
2023/01/13 22:11:59;;;;;;;4.40;1.57;;;;;6.70;96443.00;;;;8300148;28;20198;-72
2023/01/13 22:16:04;;;;;;;8.20;1.77;;;;;6.80;96449.00;;;;8304455;28;20241;-72
2023/01/13 22:20:14;;;;;;;4.63;1.73;;;;;6.90;96457.00;;;;8287996;28;20218;-71
2023/01/13 22:24:18;;;;;;;4.60;1.60;;;;;6.90;96453.00;;;;8303678;28;20278;-71
2023/01/13 22:28:24;;;;;;;3.90;1.63;;;;;7.00;96464.00;;;;8303337;28;20225;-71